Time;durP1;ratioP1;P1;durP2;ratioP2;P2;SDS_P1;SDS_P2;PMS_P1;PMS_P2;Temp;Humidity;BMP_temperature;BMP_pressure;BME280_temperature;BME280_humidity;BME280_pressure;Samples;Min_cycle;Max_cycle;Signal;HPM_P1;HPM_P2
2022/06/14 00:01:46;;;;;;;3.55;1.75;;;;;;;15.37;82.61;100513.41;5532556;32;34120;-65
2022/06/14 00:04:50;;;;;;;4.60;2.08;;;;;;;15.24;83.39;100516.81;5531763;32;33876;-64
2022/06/14 00:07:52;;;;;;;3.20;1.73;;;;;;;15.14;84.49;100519.84;5532496;32;33983;-64
2022/06/14 00:10:57;;;;;;;2.70;1.70;;;;;;;15.13;85.08;100528.03;5531703;32;33958;-64
2022/06/14 00:14:03;;;;;;;3.25;1.75;;;;;;;15.11;85.22;100530.88;5531675;32;34394;-64
2022/06/14 00:17:07;;;;;;;3.67;1.90;;;;;;;14.93;86.66;100541.22;5531931;32;33995;-64
2022/06/14 00:20:10;;;;;;;2.37;1.73;;;;;;;14.94;86.78;100537.53;5531665;32;33172;-64
2022/06/14 00:23:16;;;;;;;5.37;2.40;;;;;;;14.92;86.67;100536.88;5531426;32;34622;-64
2022/06/14 00:26:19;;;;;;;2.58;2.00;;;;;;;14.74;87.37;100526.66;5532613;32;34569;-65
2022/06/14 00:29:21;;;;;;;3.00;1.83;;;;;;;14.76;87.56;100526.50;5531460;32;33993;-64
2022/06/14 00:32:27;;;;;;;3.70;1.92;;;;;;;14.71;87.71;100528.91;5532274;32;34600;-65
2022/06/14 00:35:30;;;;;;;4.30;2.15;;;;;;;14.69;87.46;100552.28;5532248;32;34740;-65
2022/06/14 00:38:34;;;;;;;2.47;1.73;;;;;;;14.69;86.91;100555.78;5532303;32;34074;-63
2022/06/14 00:41:45;;;;;;;3.17;1.75;;;;;;;14.76;86.21;100555.87;5532029;32;34365;-65
2022/06/14 00:45:29;;;;;;;5.87;1.90;;;;;;;14.74;85.81;100568.56;5531660;32;34046;-65
2022/06/14 00:48:33;;;;;;;5.87;2.30;;;;;;;14.67;85.96;100565.81;5532048;32;34124;-65
2022/06/14 00:51:47;;;;;;;3.10;2.10;;;;;;;14.67;86.34;100586.34;5532094;32;33999;-64
2022/06/14 00:55:07;;;;;;;2.30;1.73;;;;;;;14.68;86.82;100588.00;5532056;32;34118;-64
2022/06/14 00:58:14;;;;;;;3.20;2.12;;;;;;;14.64;86.44;100598.25;5531914;32;34072;-65
2022/06/14 01:01:23;;;;;;;4.82;2.40;;;;;;;14.58;87.26;100595.50;5532032;32;34715;-65
2022/06/14 01:04:29;;;;;;;4.60;2.20;;;;;;;14.47;88.54;100602.19;5532239;32;34083;-65
2022/06/14 01:07:37;;;;;;;4.40;2.00;;;;;;;14.46;88.15;100600.53;5531648;32;34623;-65
2022/06/14 01:10:47;;;;;;;3.42;2.03;;;;;;;14.47;88.48;100601.34;5531924;32;34107;-65
2022/06/14 01:13:59;;;;;;;3.08;1.80;;;;;;;14.38;89.11;100603.28;5531987;32;34423;-65
2022/06/14 01:17:02;;;;;;;3.03;2.05;;;;;;;14.42;89.44;100617.94;5531867;32;35325;-65
2022/06/14 01:20:07;;;;;;;4.95;2.20;;;;;;;14.32;89.88;100618.19;5531769;32;35206;-65
2022/06/14 01:23:16;;;;;;;6.03;2.40;;;;;;;14.31;89.71;100616.53;5530866;32;33896;-63
2022/06/14 01:26:22;;;;;;;4.45;2.45;;;;;;;14.19;90.81;100634.00;5531836;32;34615;-65
2022/06/14 01:29:27;;;;;;;6.10;2.33;;;;;;;14.11;91.64;100636.78;5531670;32;34314;-65
2022/06/14 01:32:33;;;;;;;5.05;2.50;;;;;;;14.10;91.98;100642.28;5531618;32;33926;-65
2022/06/14 01:35:40;;;;;;;6.40;2.50;;;;;;;14.10;91.60;100648.47;5532043;32;34535;-64
2022/06/14 01:38:46;;;;;;;3.97;2.28;;;;;;;14.11;91.52;100650.13;5531764;32;34052;-65
2022/06/14 01:41:48;;;;;;;7.20;2.55;;;;;;;14.16;90.61;100652.22;5530654;32;33862;-64
2022/06/14 01:45:16;;;;;;;4.32;2.50;;;;;;;14.13;91.52;100652.62;5531476;32;34026;-65
2022/06/14 01:48:35;;;;;;;4.60;2.47;;;;;;;14.09;91.46;100651.28;5531590;32;34721;-65
2022/06/14 01:51:51;;;;;;;5.60;2.45;;;;;;;14.01;92.44;100651.41;5531656;32;35201;-65
2022/06/14 01:55:32;;;;;;;5.60;2.40;;;;;;;13.93;92.62;100658.50;5531584;32;33965;-65
2022/06/14 01:58:51;;;;;;;7.37;2.60;;;;;;;13.87;93.04;100664.53;5453513;32;33943;-64
2022/06/14 02:02:00;;;;;;;4.37;2.10;;;;;;;13.98;92.06;100671.28;5453705;32;34286;-65
2022/06/14 02:05:20;;;;;;;4.43;2.12;;;;;;;13.99;92.20;100669.44;5453462;32;34254;-64
2022/06/14 02:08:32;;;;;;;5.35;2.28;;;;;;;13.99;92.51;100664.91;5453447;32;34013;-63
2022/06/14 02:11:35;;;;;;;5.75;2.35;;;;;;;13.99;91.57;100656.91;5453530;32;35084;-64
2022/06/14 02:14:51;;;;;;;4.37;2.33;;;;;;;13.99;90.85;100654.25;5453554;32;34685;-65
2022/06/14 02:18:20;;;;;;;4.62;2.08;;;;;;;14.16;89.36;100660.25;5440759;32;32549;-65
2022/06/14 02:21:30;;;;;;;2.87;2.10;;;;;;;14.10;89.32;100667.13;5452269;32;33869;-65
2022/06/14 02:25:02;;;;;;;6.68;2.03;;;;;;;14.05;89.17;100668.69;5441484;32;33879;-65
2022/06/14 02:28:17;;;;;;;6.60;2.50;;;;;;;14.11;89.05;100666.12;5463041;32;33150;-65
2022/06/14 02:31:31;;;;;;;4.28;2.08;;;;;;;14.07;88.66;100658.69;5531262;32;34729;-64
2022/06/14 02:34:42;;;;;;;4.72;2.17;;;;;;;14.16;88.67;100670.91;5531213;32;34538;-65
2022/06/14 02:37:55;;;;;;;3.17;2.08;;;;;;;14.19;87.69;100679.38;5531226;32;33929;-64
2022/06/14 02:41:17;;;;;;;2.78;1.98;;;;;;;14.15;87.66;100666.56;5531094;32;34669;-65
2022/06/14 02:44:27;;;;;;;3.72;2.05;;;;;;;14.06;88.42;100670.34;5531127;32;34579;-63
2022/06/14 02:47:36;;;;;;;;;;;;;;;14.10;88.58;100677.81;5531101;32;34021;-65
2022/06/14 02:50:49;;;;;;;3.35;2.17;;;;;;;14.11;87.97;100671.47;5531217;32;34628;-64
2022/06/14 02:54:01;;;;;;;3.95;2.20;;;;;;;14.10;87.44;100684.97;5531016;32;34737;-63
2022/06/14 02:57:17;;;;;;;5.68;2.42;;;;;;;14.09;87.74;100688.66;5530345;32;33975;-64
2022/06/14 03:00:31;;;;;;;3.75;2.12;;;;;;;14.14;87.89;100689.75;5530968;32;33914;-64
2022/06/14 03:03:40;;;;;;;5.07;2.25;;;;;;;14.16;87.98;100693.09;5530889;32;33875;-63
2022/06/14 03:07:10;;;;;;;5.78;2.20;;;;;;;14.11;87.91;100692.81;5530730;32;34239;-64
2022/06/14 03:10:14;;;;;;;5.30;1.90;;;;;;;14.02;87.66;100690.41;5523901;32;33766;-64
2022/06/14 03:13:47;;;;;;;5.18;2.42;;;;;;;14.09;87.41;100693.97;5530882;32;33940;-66
2022/06/14 03:17:08;;;;;;;3.33;1.90;;;;;;;14.16;87.14;100698.41;5525046;32;35152;-64
2022/06/14 03:20:42;;;;;;;6.03;2.30;;;;;;;14.08;87.28;100697.69;5529851;32;33868;-64
2022/06/14 03:24:10;;;;;;;5.40;2.55;;;;;;;14.07;87.35;100704.03;5452258;32;34582;-64
2022/06/14 03:27:22;;;;;;;5.12;2.47;;;;;;;14.05;87.17;100698.03;5453000;32;35291;-65
2022/06/14 03:30:31;;;;;;;4.00;2.15;;;;;;;14.05;87.41;100700.69;5452546;32;34497;-64
2022/06/14 03:33:45;;;;;;;3.65;2.10;;;;;;;14.10;86.62;100709.81;5452366;32;33919;-66
2022/06/14 03:36:49;;;;;;;5.62;2.40;;;;;;;14.22;85.74;100708.37;5440652;32;34609;-65
2022/06/14 03:40:06;;;;;;;3.08;1.80;;;;;;;14.28;85.09;100710.28;5452252;32;34675;-66
2022/06/14 03:43:09;;;;;;;5.65;1.98;;;;;;;14.31;84.11;100711.78;5452512;32;34676;-66
2022/06/14 03:46:25;;;;;;;3.58;1.95;;;;;;;14.46;83.67;100706.47;5452222;32;33776;-66
2022/06/14 03:49:29;;;;;;;6.87;2.30;;;;;;;14.45;82.86;100704.81;5452253;32;34174;-66
2022/06/14 03:53:06;;;;;;;3.30;2.17;;;;;;;14.49;82.61;100708.75;5452167;32;34730;-66
2022/06/14 03:56:29;;;;;;;6.10;1.98;;;;;;;14.57;82.82;100714.81;5439849;32;34304;-66
2022/06/14 03:59:56;;;;;;;3.28;1.90;;;;;;;14.62;82.39;100711.63;5471903;32;34587;-64
2022/06/14 04:03:19;;;;;;;3.75;2.00;;;;;;;14.75;81.56;100727.81;5529967;32;33864;-66
2022/06/14 04:06:23;;;;;;;3.85;2.00;;;;;;;14.79;81.27;100737.94;5529892;32;34691;-66
2022/06/14 04:09:44;;;;;;;5.00;2.10;;;;;;;14.81;81.70;100736.91;5529821;32;33918;-66
2022/06/14 04:13:07;;;;;;;3.72;2.15;;;;;;;14.86;81.37;100729.19;5529801;32;34315;-66
2022/06/14 04:16:26;;;;;;;2.75;1.83;;;;;;;14.92;83.29;100739.91;5529274;32;34130;-65
2022/06/14 04:20:15;;;;;;;5.80;2.08;;;;;;;15.11;79.69;100751.84;5529882;32;34087;-67
2022/06/14 04:23:27;;;;;;;5.20;2.65;;;;;;;15.18;78.85;100747.44;5527451;32;34579;-66
2022/06/14 04:26:40;;;;;;;6.18;2.08;;;;;;;15.28;80.44;100758.66;5529515;32;35292;-66
2022/06/14 04:29:48;;;;;;;4.93;2.10;;;;;;;15.50;80.15;100765.66;5529407;32;34066;-67
2022/06/14 04:33:14;;;;;;;5.90;1.87;;;;;;;15.44;80.55;100761.06;5529428;32;34374;-67
2022/06/14 04:36:28;;;;;;;4.22;2.20;;;;;;;15.48;80.94;100766.88;5529466;32;34038;-66
2022/06/14 04:39:43;;;;;;;5.53;2.37;;;;;;;15.54;80.52;100761.59;5528491;32;33931;-67
2022/06/14 04:42:50;;;;;;;6.68;2.10;;;;;;;15.76;79.21;100772.31;5529297;32;34127;-66
2022/06/14 04:46:07;;;;;;;3.62;2.05;;;;;;;15.61;80.13;100765.19;5531583;32;34220;-67
2022/06/14 04:49:21;;;;;;;3.58;2.28;;;;;;;15.67;80.32;100768.94;5531999;32;34772;-66
2022/06/14 04:52:35;;;;;;;14.38;2.67;;;;;;;15.57;79.51;100774.62;5531920;32;34023;-66
2022/06/14 04:55:53;;;;;;;3.92;2.08;;;;;;;15.73;79.84;100783.41;5531841;32;34588;-67
2022/06/14 04:59:04;;;;;;;5.45;2.17;;;;;;;15.76;80.28;100775.81;5531894;32;34093;-67
2022/06/14 05:02:20;;;;;;;5.80;2.20;;;;;;;15.75;79.91;100786.72;5531925;32;33963;-65
2022/06/14 05:05:47;;;;;;;6.65;1.95;;;;;;;15.91;79.44;100787.28;5531713;32;34733;-67
2022/06/14 05:08:52;;;;;;;4.28;2.00;;;;;;;16.06;78.19;100790.72;5532089;32;34291;-65
2022/06/14 05:12:09;;;;;;;7.87;2.00;;;;;;;16.21;77.16;100787.13;5531775;32;34154;-67
2022/06/14 05:15:39;;;;;;;4.65;2.05;;;;;;;16.50;76.26;100793.09;5531508;32;33962;-67
2022/06/14 05:18:50;;;;;;;5.40;2.20;;;;;;;16.26;76.75;100793.53;5531813;32;34203;-66
2022/06/14 05:21:58;;;;;;;4.57;2.25;;;;;;;16.44;75.46;100801.91;5530657;32;33997;-67
2022/06/14 05:25:03;;;;;;;4.37;2.03;;;;;;;16.43;76.17;100802.09;5531607;32;34681;-68
2022/06/14 05:28:19;;;;;;;3.67;1.95;;;;;;;16.63;76.14;100811.13;5531124;32;34628;-68
2022/06/14 05:31:47;;;;;;;5.55;2.33;;;;;;;16.58;75.67;100808.22;5531562;32;34061;-66
2022/06/14 05:35:15;;;;;;;4.57;2.28;;;;;;;16.32;76.94;100813.34;5531449;32;34277;-68
2022/06/14 05:38:36;;;;;;;5.57;2.50;;;;;;;16.16;77.53;100802.94;5531324;32;33942;-67
2022/06/14 05:41:46;;;;;;;4.68;2.35;;;;;;;16.38;77.09;100817.91;5531122;32;34014;-67
2022/06/14 05:44:56;;;;;;;2.37;1.98;;;;;;;16.27;77.97;100819.28;5530962;32;34234;-66
2022/06/14 05:48:07;;;;;;;7.32;2.33;;;;;;;16.21;76.89;100821.91;5530913;32;34607;-68
2022/06/14 05:51:13;;;;;;;7.60;2.20;;;;;;;16.37;76.34;100814.41;5531110;32;34052;-68
2022/06/14 05:54:23;;;;;;;4.25;1.90;;;;;;;16.67;76.02;100816.91;5530532;32;34454;-67
2022/06/14 05:57:37;;;;;;;4.55;1.95;;;;;;;16.77;75.10;100817.38;5531378;32;33968;-67
2022/06/14 06:00:45;;;;;;;4.37;1.92;;;;;;;16.73;73.58;100824.16;5531131;32;35258;-68
2022/06/14 06:03:59;;;;;;;2.70;1.90;;;;;;;16.81;74.51;100822.16;5531086;32;34661;-68
2022/06/14 06:07:14;;;;;;;4.95;2.22;;;;;;;16.91;73.30;100827.97;5530847;32;34027;-67
2022/06/14 06:10:31;;;;;;;6.70;2.03;;;;;;;17.01;73.42;100829.47;5531097;32;33957;-68
2022/06/14 06:13:46;;;;;;;3.20;1.80;;;;;;;17.36;72.49;100836.44;5531298;32;33976;-66
2022/06/14 06:17:03;;;;;;;4.12;2.10;;;;;;;17.49;71.70;100839.16;5531298;32;34084;-66
2022/06/14 06:20:24;;;;;;;4.12;2.00;;;;;;;17.67;71.60;100838.66;5530752;32;34136;-66
2022/06/14 06:23:40;;;;;;;5.07;1.90;;;;;;;17.76;69.46;100849.00;5530158;32;34175;-66
2022/06/14 06:27:00;;;;;;;7.20;1.95;;;;;;;17.73;69.27;100841.31;5530050;32;35227;-66
2022/06/14 06:30:24;;;;;;;5.93;1.80;;;;;;;17.84;69.21;100853.31;5530703;32;33964;-66
2022/06/14 06:33:35;;;;;;;4.62;1.77;;;;;;;18.20;66.73;100840.34;5530123;32;34676;-66
2022/06/14 06:36:57;;;;;;;4.37;1.87;;;;;;;18.36;67.32;100840.97;5530199;32;33931;-67
2022/06/14 06:40:09;;;;;;;3.33;1.77;;;;;;;18.31;66.43;100844.28;5530654;32;34313;-69
2022/06/14 06:43:13;;;;;;;5.10;1.90;;;;;;;18.57;66.51;100843.47;5531345;32;34595;-67
2022/06/14 06:46:19;;;;;;;3.83;2.00;;;;;;;18.48;65.95;100850.91;5529903;32;34586;-67
2022/06/14 06:49:31;;;;;;;8.43;1.52;;;;;;;18.44;65.68;100852.34;5529897;32;35169;-66
2022/06/14 06:52:47;;;;;;;7.70;2.67;;;;;;;18.79;65.34;100852.09;5530714;32;34118;-67
2022/06/14 06:56:11;;;;;;;3.58;1.65;;;;;;;18.83;63.88;100854.16;5529812;32;34225;-66
2022/06/14 06:59:28;;;;;;;3.97;1.58;;;;;;;19.05;61.60;100854.75;5529600;32;34534;-68
2022/06/14 07:02:46;;;;;;;6.28;2.00;;;;;;;19.13;62.45;100846.44;5530552;32;33922;-67
2022/06/14 07:05:51;;;;;;;7.32;2.22;;;;;;;19.56;61.81;100849.38;5529652;32;34716;-67
2022/06/14 07:08:58;;;;;;;3.75;1.73;;;;;;;19.57;59.84;100858.28;5530872;32;33896;-68
2022/06/14 07:12:10;;;;;;;5.62;2.10;;;;;;;19.67;60.61;100851.41;5530686;32;35168;-67
2022/06/14 07:15:40;;;;;;;9.32;1.95;;;;;;;19.93;59.44;100853.13;5530517;32;34590;-68
2022/06/14 07:19:06;;;;;;;5.05;1.50;;;;;;;20.07;59.31;100861.94;5530727;32;33928;-68
2022/06/14 07:22:25;;;;;;;6.50;1.60;;;;;;;20.34;58.58;100855.31;5530453;32;34668;-67
2022/06/14 07:25:33;;;;;;;4.00;1.60;;;;;;;20.53;57.16;100854.31;5530516;32;34039;-67
2022/06/14 07:28:54;;;;;;;8.23;1.83;;;;;;;20.38;56.79;100851.16;5530617;32;34626;-66
2022/06/14 07:32:14;;;;;;;9.32;1.70;;;;;;;20.67;53.73;100857.75;5530459;32;34033;-68
2022/06/14 07:35:42;;;;;;;4.07;1.30;;;;;;;20.97;52.42;100860.53;5529362;32;33729;-66
2022/06/14 07:38:53;;;;;;;7.32;1.58;;;;;;;20.96;52.98;100867.78;5530116;32;33887;-66
2022/06/14 07:42:05;;;;;;;3.00;1.20;;;;;;;21.74;50.21;100861.66;5530220;32;35297;-65
2022/06/14 07:45:17;;;;;;;6.43;1.65;;;;;;;22.26;46.55;100858.22;5530105;32;33952;-65
2022/06/14 07:48:37;;;;;;;7.25;1.40;;;;;;;22.63;44.93;100853.44;5530195;32;34087;-67
2022/06/14 07:51:53;;;;;;;;;;;;;;;23.23;43.83;100853.97;5529666;32;33879;-67
2022/06/14 07:55:08;;;;;;;5.97;1.17;;;;;;;24.12;37.38;100857.03;5529868;32;34231;-67
2022/06/14 07:58:18;;;;;;;4.03;1.10;;;;;;;23.25;39.30;100857.25;5529002;32;34074;-67
2022/06/14 08:01:38;;;;;;;3.30;1.45;;;;;;;23.03;40.55;100861.66;5529667;32;34815;-66
2022/06/14 08:04:54;;;;;;;2.47;1.20;;;;;;;23.49;37.83;100852.62;5529935;32;35330;-67
2022/06/14 08:08:04;;;;;;;7.78;1.33;;;;;;;23.57;37.84;100854.97;5529748;32;33964;-68
2022/06/14 08:11:21;;;;;;;5.53;1.35;;;;;;;24.14;37.58;100858.44;5529346;32;34023;-67
2022/06/14 08:14:33;;;;;;;3.62;1.25;;;;;;;24.85;36.06;100859.56;5529883;32;33931;-67
2022/06/14 08:17:42;;;;;;;5.20;1.60;;;;;;;24.38;33.35;100855.59;5529327;32;34758;-68
2022/06/14 08:20:55;;;;;;;5.55;1.20;;;;;;;23.72;37.02;100865.25;5532042;32;34154;-67
2022/06/14 08:24:13;;;;;;;4.00;1.40;;;;;;;23.53;37.42;100863.81;5532144;32;34593;-67
2022/06/14 08:27:34;;;;;;;2.95;1.40;;;;;;;24.78;36.66;100860.81;5530549;32;34457;-67
2022/06/14 08:30:43;;;;;;;4.45;1.33;;;;;;;24.76;35.52;100858.34;5530167;32;33948;-66
2022/06/14 08:34:08;;;;;;;5.18;1.23;;;;;;;25.59;34.48;100861.91;5530062;32;34910;-67
2022/06/14 08:37:17;;;;;;;2.83;0.98;;;;;;;24.85;33.25;100862.28;5530054;32;34769;-65
2022/06/14 08:40:50;;;;;;;1.85;1.10;;;;;;;23.99;31.59;100862.75;5529473;32;33964;-65
2022/06/14 08:44:01;;;;;;;2.78;1.15;;;;;;;23.93;32.95;100861.03;5529085;32;34288;-65
2022/06/14 08:47:35;;;;;;;4.25;1.20;;;;;;;24.04;32.70;100857.44;5529435;32;34590;-67
2022/06/14 08:51:12;;;;;;;3.83;1.48;;;;;;;25.19;31.71;100854.88;5528810;32;32563;-66
2022/06/14 08:54:19;;;;;;;2.22;0.93;;;;;;;25.30;29.20;100858.56;5529995;32;34663;-66
2022/06/14 08:58:13;;;;;;;5.97;1.20;;;;;;;24.91;29.30;100853.16;5529111;32;34116;-66
2022/06/14 09:01:35;;;;;;;6.15;1.30;;;;;;;25.28;29.65;100858.78;5529652;32;34335;-66
2022/06/14 09:05:06;;;;;;;3.10;1.10;;;;;;;24.71;30.32;100858.28;5529960;32;33990;-66
2022/06/14 09:08:44;;;;;;;3.42;1.10;;;;;;;25.55;29.38;100858.06;5529420;32;34176;-67
2022/06/14 09:12:02;;;;;;;1.27;0.85;;;;;;;26.58;29.46;100856.84;5528985;32;32748;-66
2022/06/14 09:15:23;;;;;;;1.77;0.85;;;;;;;26.62;27.69;100858.78;5529306;32;34335;-66
2022/06/14 09:18:39;;;;;;;2.40;0.90;;;;;;;26.27;29.96;100861.25;5529589;32;34137;-67
2022/06/14 09:22:06;;;;;;;1.93;0.93;;;;;;;26.96;28.73;100855.75;5529305;32;34176;-66
2022/06/14 09:25:25;;;;;;;3.78;1.00;;;;;;;26.09;29.35;100859.72;5529450;32;35077;-67
2022/06/14 09:29:04;;;;;;;2.85;1.10;;;;;;;27.74;27.78;100848.44;5529346;32;34143;-67
2022/06/14 09:36:15;;;;;;;4.00;0.93;;;;;;;26.77;28.22;100841.75;5529688;32;34267;-65
2022/06/14 09:39:39;;;;;;;5.28;1.00;;;;;;;27.39;27.69;100851.84;5530245;32;34197;-67
2022/06/14 09:43:00;;;;;;;3.37;1.17;;;;;;;25.59;29.20;100851.03;5530354;32;34835;-66
2022/06/14 09:46:20;;;;;;;4.60;1.00;;;;;;;25.44;30.00;100838.91;5530649;32;32880;-67
2022/06/14 09:49:26;;;;;;;3.28;1.17;;;;;;;27.53;25.61;100834.75;5529267;32;34566;-68
2022/06/14 09:52:38;;;;;;;2.30;0.90;;;;;;;28.08;25.38;100839.47;5529531;32;34600;-67
2022/06/14 09:56:16;;;;;;;3.15;1.12;;;;;;;28.79;26.16;100838.62;5529495;32;32815;-67
2022/06/14 09:59:48;;;;;;;3.55;1.02;;;;;;;27.94;26.29;100841.09;5530061;32;35100;-68
2022/06/14 10:03:19;;;;;;;2.12;0.98;;;;;;;27.97;26.77;100837.03;5529852;32;34735;-65
2022/06/14 10:06:37;;;;;;;3.12;1.02;;;;;;;27.25;27.03;100836.00;5529391;32;34012;-67
2022/06/14 10:10:11;;;;;;;3.65;1.20;;;;;;;26.76;28.60;100837.37;5530328;32;34062;-66
2022/06/14 10:13:40;;;;;;;3.05;1.27;;;;;;;24.38;32.53;100834.72;5529398;32;34724;-67
2022/06/14 10:17:11;;;;;;;3.80;1.08;;;;;;;23.98;33.31;100831.31;5529526;32;34723;-65
2022/06/14 10:20:45;;;;;;;4.82;1.48;;;;;;;25.62;31.75;100837.75;5529876;32;33953;-67
2022/06/14 10:23:57;;;;;;;3.85;1.40;;;;;;;27.29;28.71;100825.41;5529630;32;33981;-68
2022/06/14 10:30:55;;;;;;;2.53;1.20;;;;;;;26.85;29.48;100822.19;5529074;32;34773;-66
2022/06/14 10:34:13;;;;;;;2.72;1.17;;;;;;;27.16;28.47;100826.69;5529881;32;34043;-67
2022/06/14 10:38:00;;;;;;;2.30;1.23;;;;;;;28.23;27.33;100826.94;5529567;32;34724;-68
2022/06/14 10:41:34;;;;;;;5.22;1.15;;;;;;;26.88;28.54;100820.84;5513783;32;34000;-67
2022/06/14 10:44:43;;;;;;;4.25;1.20;;;;;;;27.94;28.25;100821.19;5523812;32;34533;-67
2022/06/14 10:48:17;;;;;;;4.80;1.25;;;;;;;26.33;29.52;100822.94;5528660;32;33933;-66
2022/06/14 10:51:23;;;;;;;5.65;1.30;;;;;;;27.60;28.14;100815.41;5528578;32;35383;-68
2022/06/14 10:54:33;;;;;;;3.22;1.12;;;;;;;26.44;29.91;100817.56;5529055;32;34088;-65
2022/06/14 10:57:41;;;;;;;4.10;1.60;;;;;;;28.45;27.75;100824.75;5529361;32;34573;-67
2022/06/14 11:01:24;;;;;;;10.27;1.50;;;;;;;29.75;25.64;100816.34;5528931;32;34109;-67
2022/06/14 11:04:55;;;;;;;1.58;0.90;;;;;;;28.86;25.37;100818.12;5529110;32;34243;-67
2022/06/14 11:08:27;;;;;;;4.75;1.48;;;;;;;29.33;24.88;100812.22;5529365;32;34820;-66
2022/06/14 11:11:38;;;;;;;6.10;1.10;;;;;;;31.97;23.16;100802.03;5528553;32;33821;-66
2022/06/14 11:14:52;;;;;;;6.30;0.95;;;;;;;31.37;24.90;100810.03;5528985;32;34109;-67
2022/06/14 11:18:05;;;;;;;3.95;2.10;;;;;;;32.24;23.42;100815.09;5528891;32;34625;-68
2022/06/14 11:21:27;;;;;;;2.33;1.08;;;;;;;30.33;25.70;100821.91;5529020;32;34399;-67
2022/06/14 11:24:39;;;;;;;1.90;1.02;;;;;;;29.23;26.22;100809.50;5528261;32;34845;-66
2022/06/14 11:28:00;;;;;;;3.83;1.00;;;;;;;29.30;25.84;100811.91;5527810;32;34088;-68
2022/06/14 11:31:19;;;;;;;2.80;1.10;;;;;;;27.55;28.06;100807.22;5528764;32;34004;-67
2022/06/14 11:34:31;;;;;;;3.92;1.35;;;;;;;29.09;26.41;100802.22;5528496;32;33902;-66
2022/06/14 11:37:48;;;;;;;4.28;1.60;;;;;;;28.57;26.92;100799.87;5529810;32;34316;-66
2022/06/14 11:40:58;;;;;;;1.83;1.00;;;;;;;29.54;25.86;100804.72;5530280;32;33922;-66
2022/06/14 11:44:29;;;;;;;5.62;1.05;;;;;;;28.99;25.33;100803.06;5529430;32;34027;-66
2022/06/14 11:47:44;;;;;;;3.67;1.00;;;;;;;28.64;24.90;100800.41;5530147;32;34036;-66
2022/06/14 11:51:01;;;;;;;3.12;1.10;;;;;;;28.39;26.60;100790.38;5530314;32;34023;-68
2022/06/14 11:54:41;;;;;;;4.37;1.20;;;;;;;26.40;28.12;100809.09;5532093;32;34176;-65
2022/06/14 11:58:00;;;;;;;3.92;1.15;;;;;;;25.28;30.23;100804.47;5529567;32;34441;-66
2022/06/14 12:01:18;;;;;;;8.68;1.30;;;;;;;26.10;28.82;100812.38;5532443;32;33940;-65
2022/06/14 12:04:30;;;;;;;1.90;0.95;;;;;;;27.30;27.31;100810.69;5531766;32;33929;-65
2022/06/14 12:07:38;;;;;;;3.30;1.15;;;;;;;28.22;24.38;100807.06;5532447;32;34290;-65
2022/06/14 12:11:00;;;;;;;2.90;1.02;;;;;;;29.18;24.84;100801.34;5532525;32;34334;-66
2022/06/14 12:14:32;;;;;;;1.87;0.77;;;;;;;30.95;22.56;100804.56;5531798;32;33431;-66
2022/06/14 12:18:07;;;;;;;3.10;1.10;;;;;;;32.34;21.45;100804.72;5477721;32;33931;-66
2022/06/14 12:21:21;;;;;;;4.55;1.30;;;;;;;29.77;23.48;100808.69;5520986;32;33897;-65
2022/06/14 12:26:34;;;;;;;2.22;1.20;;;;;;;30.16;23.84;100803.97;5532377;32;34182;-67
2022/06/14 12:27:59;;;;;;;3.75;1.12;;;;;;;32.49;22.61;100800.03;5532315;32;34021;-68
2022/06/14 12:31:18;;;;;;;2.42;1.02;;;;;;;30.38;22.05;100799.97;5532144;32;34218;-65
2022/06/14 12:34:47;;;;;;;4.30;1.27;;;;;;;28.32;25.19;100798.81;5532155;32;33956;-66
2022/06/14 12:38:01;;;;;;;3.30;1.08;;;;;;;27.05;26.98;100796.97;5531451;32;35238;-66
2022/06/14 12:41:10;;;;;;;2.72;1.10;;;;;;;25.27;29.71;100794.69;5531317;32;34082;-66
2022/06/14 12:44:37;;;;;;;1.35;0.95;;;;;;;23.72;32.56;100784.00;5532111;32;34299;-66
2022/06/14 12:48:19;;;;;;;4.68;1.27;;;;;;;23.49;33.29;100784.91;5532039;32;33955;-66
2022/06/14 12:51:35;;;;;;;2.62;1.27;;;;;;;26.81;28.34;100791.12;5532054;32;34205;-65
2022/06/14 12:54:51;;;;;;;5.28;1.00;;;;;;;29.37;25.82;100782.41;5531950;32;34136;-66
2022/06/14 12:58:14;;;;;;;1.90;1.12;;;;;;;30.27;25.20;100787.47;5531984;32;34172;-67
2022/06/14 13:01:30;;;;;;;5.78;1.20;;;;;;;28.99;26.40;100788.59;5532263;32;34012;-66
2022/06/14 13:04:40;;;;;;;3.45;1.10;;;;;;;30.93;24.20;100784.88;5530909;32;34244;-66
2022/06/14 13:08:14;;;;;;;3.80;1.30;;;;;;;31.46;23.11;100780.88;5531817;32;34450;-66
2022/06/14 13:11:33;;;;;;;2.40;1.10;;;;;;;31.19;23.74;100769.75;5531602;32;34498;-66
2022/06/14 13:14:48;;;;;;;1.58;1.02;;;;;;;30.81;24.20;100768.84;5530984;32;33659;-66
2022/06/14 13:18:06;;;;;;;2.90;1.27;;;;;;;30.27;24.98;100780.06;5531260;32;33984;-65
2022/06/14 13:21:30;;;;;;;5.53;1.10;;;;;;;28.62;26.31;100775.28;5531341;32;33956;-66
2022/06/14 13:25:17;;;;;;;5.90;1.27;;;;;;;32.24;22.66;100771.16;5531667;32;34579;-66
2022/06/14 13:28:40;;;;;;;2.17;1.12;;;;;;;32.11;22.87;100767.25;5531516;32;34186;-68
2022/06/14 13:32:05;;;;;;;1.42;0.95;;;;;;;34.38;19.91;100758.63;5530881;32;33346;-66
2022/06/14 13:35:39;;;;;;;7.72;1.20;;;;;;;33.25;20.68;100758.16;5531194;32;34042;-68
2022/06/14 13:38:58;;;;;;;3.58;1.20;;;;;;;31.93;22.49;100752.44;5530193;32;32620;-68
2022/06/14 13:42:12;;;;;;;3.92;1.25;;;;;;;29.56;25.15;100757.94;5530530;32;32616;-67
2022/06/14 13:45:30;;;;;;;5.78;1.02;;;;;;;31.37;23.32;100751.69;5530058;32;32726;-67
2022/06/14 13:48:41;;;;;;;3.78;1.30;;;;;;;31.90;21.45;100750.28;5530306;32;32980;-66
2022/06/14 13:52:31;;;;;;;2.37;0.85;;;;;;;32.64;21.04;100753.09;5530968;32;35230;-66
2022/06/14 13:55:45;;;;;;;1.73;1.00;;;;;;;30.58;23.66;100748.56;5473610;32;33175;-67
2022/06/14 13:58:56;;;;;;;2.65;1.05;;;;;;;30.61;24.83;100739.75;5531422;32;34712;-66
2022/06/14 14:02:13;;;;;;;3.03;1.25;;;;;;;30.05;25.35;100735.97;5531087;32;34778;-67
2022/06/14 14:05:35;;;;;;;3.75;1.40;;;;;;;30.57;24.04;100743.38;5531082;32;34698;-65
2022/06/14 14:08:53;;;;;;;2.47;1.27;;;;;;;28.00;27.44;100736.38;5529796;32;34001;-66
2022/06/14 14:12:03;;;;;;;3.13;1.20;;;;;;;29.71;25.59;100735.97;5530777;32;34174;-67
2022/06/14 14:15:34;;;;;;;3.35;1.48;;;;;;;30.02;24.42;100731.87;5529679;32;32493;-67
2022/06/14 14:18:46;;;;;;;2.45;1.05;;;;;;;29.55;25.44;100739.91;5530660;32;33559;-66
2022/06/14 14:22:23;;;;;;;2.55;1.30;;;;;;;30.60;24.33;100732.66;5530596;32;34013;-67
2022/06/14 14:25:36;;;;;;;4.25;1.45;;;;;;;29.32;25.42;100730.50;5530604;32;34039;-66
2022/06/14 14:28:42;;;;;;;3.78;1.00;;;;;;;29.62;25.37;100729.47;5530787;32;34017;-67
2022/06/14 14:31:51;;;;;;;4.28;1.10;;;;;;;28.28;26.51;100717.78;5530520;32;34659;-67
2022/06/14 14:35:16;;;;;;;4.72;1.25;;;;;;;28.87;26.06;100726.91;5530956;32;34497;-67
2022/06/14 14:38:32;;;;;;;2.72;1.00;;;;;;;29.58;24.72;100721.00;5529399;32;34712;-67
2022/06/14 14:41:52;;;;;;;2.22;1.08;;;;;;;30.41;23.97;100728.19;5529236;32;32905;-66
2022/06/14 14:45:13;;;;;;;3.97;1.08;;;;;;;29.84;23.06;100721.63;5529998;32;34594;-66
2022/06/14 14:48:47;;;;;;;3.15;1.00;;;;;;;30.70;21.87;100719.94;5529941;32;34262;-66
2022/06/14 14:52:18;;;;;;;4.72;0.95;;;;;;;31.06;22.02;100715.66;5530355;32;34067;-66
2022/06/14 14:55:54;;;;;;;2.72;1.12;;;;;;;29.62;23.73;100713.91;5530235;32;35110;-65
2022/06/14 14:59:17;;;;;;;1.52;0.90;;;;;;;30.02;23.47;100717.38;5530339;32;34140;-66
2022/06/14 15:06:03;;;;;;;2.17;0.75;;;;;;;29.20;24.23;100699.94;5530052;32;34560;-68
2022/06/14 15:09:16;;;;;;;3.33;0.90;;;;;;;30.71;22.57;100703.22;5529446;32;34136;-65
2022/06/14 15:12:33;;;;;;;1.77;0.95;;;;;;;29.49;23.58;100705.50;5530080;32;35169;-66
2022/06/14 15:15:44;;;;;;;3.30;0.90;;;;;;;31.20;22.03;100702.84;5529364;32;33677;-67
2022/06/14 15:22:31;;;;;;;2.45;0.80;;;;;;;27.68;26.23;100692.22;5530184;32;34413;-67
2022/06/14 15:25:35;;;;;;;3.20;0.80;;;;;;;26.37;28.51;100693.47;5530584;32;34538;-68
2022/06/14 15:28:53;;;;;;;1.17;0.68;;;;;;;24.88;30.54;100693.56;5529238;32;34709;-64
2022/06/14 15:32:14;;;;;;;2.95;0.90;;;;;;;24.18;31.50;100688.81;5530201;32;34434;-66
2022/06/14 15:35:21;;;;;;;3.12;0.90;;;;;;;24.01;31.01;100693.38;5529374;32;33480;-67